sensor_id;sensor_type;location;lat;lon;timestamp;temperature;humidity
7512;DHT22;9999;48.780;9.146;2023-08-24T00:00:29;21.80;99.90
7512;DHT22;9999;48.780;9.146;2023-08-24T00:02:57;21.70;99.90
7512;DHT22;9999;48.780;9.146;2023-08-24T00:05:24;21.80;99.90
7512;DHT22;9999;48.780;9.146;2023-08-24T00:07:51;21.90;99.90
7512;DHT22;9999;48.780;9.146;2023-08-24T00:10:18;21.80;99.90
7512;DHT22;9999;48.780;9.146;2023-08-24T00:12:45;21.70;99.90
7512;DHT22;9999;48.780;9.146;2023-08-24T00:15:12;21.60;99.90
7512;DHT22;9999;48.780;9.146;2023-08-24T00:17:40;21.70;99.90
7512;DHT22;9999;48.780;9.146;2023-08-24T00:20:07;21.60;99.90
7512;DHT22;9999;48.780;9.146;2023-08-24T00:22:37;21.50;99.90
7512;DHT22;9999;48.780;9.146;2023-08-24T00:25:05;21.50;99.90
7512;DHT22;9999;48.780;9.146;2023-08-24T00:27:32;21.40;99.90
7512;DHT22;9999;48.780;9.146;2023-08-24T00:29:59;21.30;99.90
7512;DHT22;9999;48.780;9.146;2023-08-24T00:32:26;21.20;99.90
7512;DHT22;9999;48.780;9.146;2023-08-24T00:34:55;21.30;99.90
7512;DHT22;9999;48.780;9.146;2023-08-24T00:37:22;21.40;99.90
7512;DHT22;9999;48.780;9.146;2023-08-24T00:39:49;21.30;99.90
7512;DHT22;9999;48.780;9.146;2023-08-24T00:42:16;21.40;99.90
7512;DHT22;9999;48.780;9.146;2023-08-24T00:44:43;21.40;99.90
7512;DHT22;9999;48.780;9.146;2023-08-24T00:47:11;21.40;99.90
7512;DHT22;9999;48.780;9.146;2023-08-24T00:49:38;21.40;99.90
7512;DHT22;9999;48.780;9.146;2023-08-24T00:52:06;21.40;99.90
7512;DHT22;9999;48.780;9.146;2023-08-24T00:54:33;21.40;99.90
7512;DHT22;9999;48.780;9.146;2023-08-24T00:57:01;21.30;99.90
7512;DHT22;9999;48.780;9.146;2023-08-24T00:59:28;21.20;99.90
7512;DHT22;9999;48.780;9.146;2023-08-24T01:01:55;21.30;99.90
7512;DHT22;9999;48.780;9.146;2023-08-24T01:04:23;21.40;99.90
7512;DHT22;9999;48.780;9.146;2023-08-24T01:06:49;21.30;99.90
7512;DHT22;9999;48.780;9.146;2023-08-24T01:09:18;21.30;99.90
7512;DHT22;9999;48.780;9.146;2023-08-24T01:11:54;21.30;99.90
7512;DHT22;9999;48.780;9.146;2023-08-24T01:14:30;21.30;99.90
7512;DHT22;9999;48.780;9.146;2023-08-24T01:17:04;21.30;99.90
7512;DHT22;9999;48.780;9.146;2023-08-24T01:19:38;21.20;99.90
7512;DHT22;9999;48.780;9.146;2023-08-24T01:22:15;21.20;99.90
7512;DHT22;9999;48.780;9.146;2023-08-24T01:24:53;21.10;99.90
7512;DHT22;9999;48.780;9.146;2023-08-24T01:27:23;21.10;99.90
7512;DHT22;9999;48.780;9.146;2023-08-24T01:29:52;21.10;99.90
7512;DHT22;9999;48.780;9.146;2023-08-24T01:32:24;21.10;99.90
7512;DHT22;9999;48.780;9.146;2023-08-24T01:34:51;21.00;99.90
7512;DHT22;9999;48.780;9.146;2023-08-24T01:37:18;21.00;99.90
7512;DHT22;9999;48.780;9.146;2023-08-24T01:39:50;21.00;99.90
7512;DHT22;9999;48.780;9.146;2023-08-24T01:42:21;21.00;99.90
7512;DHT22;9999;48.780;9.146;2023-08-24T01:44:55;20.90;99.90
7512;DHT22;9999;48.780;9.146;2023-08-24T01:47:25;20.80;99.90
7512;DHT22;9999;48.780;9.146;2023-08-24T01:49:52;20.90;99.90
7512;DHT22;9999;48.780;9.146;2023-08-24T01:52:19;20.80;99.90
7512;DHT22;9999;48.780;9.146;2023-08-24T01:54:47;20.80;99.90
7512;DHT22;9999;48.780;9.146;2023-08-24T01:57:14;20.80;99.90
7512;DHT22;9999;48.780;9.146;2023-08-24T01:59:41;20.80;99.90
7512;DHT22;9999;48.780;9.146;2023-08-24T02:02:09;20.90;99.90
7512;DHT22;9999;48.780;9.146;2023-08-24T02:04:36;20.90;99.90
7512;DHT22;9999;48.780;9.146;2023-08-24T02:07:03;20.90;99.90
7512;DHT22;9999;48.780;9.146;2023-08-24T02:09:30;20.70;99.90
7512;DHT22;9999;48.780;9.146;2023-08-24T02:11:56;20.70;99.90
7512;DHT22;9999;48.780;9.146;2023-08-24T02:14:23;20.70;99.90
7512;DHT22;9999;48.780;9.146;2023-08-24T02:16:50;20.80;99.90
7512;DHT22;9999;48.780;9.146;2023-08-24T02:19:18;20.80;99.90
7512;DHT22;9999;48.780;9.146;2023-08-24T02:21:45;20.80;99.90
7512;DHT22;9999;48.780;9.146;2023-08-24T02:24:12;20.80;99.90
7512;DHT22;9999;48.780;9.146;2023-08-24T02:26:38;20.80;99.90
7512;DHT22;9999;48.780;9.146;2023-08-24T02:29:05;20.80;99.90
7512;DHT22;9999;48.780;9.146;2023-08-24T02:31:32;20.90;99.90
7512;DHT22;9999;48.780;9.146;2023-08-24T02:33:59;20.80;99.90
7512;DHT22;9999;48.780;9.146;2023-08-24T02:36:27;20.80;99.90
7512;DHT22;9999;48.780;9.146;2023-08-24T02:38:54;20.70;99.90
7512;DHT22;9999;48.780;9.146;2023-08-24T02:41:21;20.70;99.90
7512;DHT22;9999;48.780;9.146;2023-08-24T02:43:47;20.70;99.90
7512;DHT22;9999;48.780;9.146;2023-08-24T02:46:14;20.60;99.90
7512;DHT22;9999;48.780;9.146;2023-08-24T02:48:41;20.60;99.90
7512;DHT22;9999;48.780;9.146;2023-08-24T02:51:08;20.70;99.90
7512;DHT22;9999;48.780;9.146;2023-08-24T02:53:37;20.70;99.90
7512;DHT22;9999;48.780;9.146;2023-08-24T02:56:04;20.60;99.90
7512;DHT22;9999;48.780;9.146;2023-08-24T02:58:31;20.50;99.90
7512;DHT22;9999;48.780;9.146;2023-08-24T03:00:58;20.60;99.90
7512;DHT22;9999;48.780;9.146;2023-08-24T03:03:25;20.60;99.90
7512;DHT22;9999;48.780;9.146;2023-08-24T03:05:55;20.70;99.90
7512;DHT22;9999;48.780;9.146;2023-08-24T03:08:22;20.70;99.90
7512;DHT22;9999;48.780;9.146;2023-08-24T03:10:51;20.70;99.90
7512;DHT22;9999;48.780;9.146;2023-08-24T03:13:18;20.60;99.90
7512;DHT22;9999;48.780;9.146;2023-08-24T03:15:45;20.60;99.90
7512;DHT22;9999;48.780;9.146;2023-08-24T03:18:12;20.60;99.90
7512;DHT22;9999;48.780;9.146;2023-08-24T03:20:39;20.50;99.90
7512;DHT22;9999;48.780;9.146;2023-08-24T03:23:07;20.50;99.90
7512;DHT22;9999;48.780;9.146;2023-08-24T03:25:36;20.50;99.90
7512;DHT22;9999;48.780;9.146;2023-08-24T03:28:06;20.50;99.90
7512;DHT22;9999;48.780;9.146;2023-08-24T03:30:33;20.50;99.90
7512;DHT22;9999;48.780;9.146;2023-08-24T03:33:00;20.50;99.90
7512;DHT22;9999;48.780;9.146;2023-08-24T03:35:29;20.50;99.90
7512;DHT22;9999;48.780;9.146;2023-08-24T03:37:56;20.50;99.90
7512;DHT22;9999;48.780;9.146;2023-08-24T03:40:23;20.50;99.90
7512;DHT22;9999;48.780;9.146;2023-08-24T03:42:50;20.50;99.90
7512;DHT22;9999;48.780;9.146;2023-08-24T03:45:20;20.40;99.90
7512;DHT22;9999;48.780;9.146;2023-08-24T03:47:46;20.40;99.90
7512;DHT22;9999;48.780;9.146;2023-08-24T03:50:13;20.50;99.90
7512;DHT22;9999;48.780;9.146;2023-08-24T03:52:40;20.40;99.90
7512;DHT22;9999;48.780;9.146;2023-08-24T03:55:07;20.40;99.90
7512;DHT22;9999;48.780;9.146;2023-08-24T03:57:34;20.50;99.90
7512;DHT22;9999;48.780;9.146;2023-08-24T04:00:04;20.40;99.90
7512;DHT22;9999;48.780;9.146;2023-08-24T04:02:44;20.50;99.90
7512;DHT22;9999;48.780;9.146;2023-08-24T04:05:19;20.50;99.90
7512;DHT22;9999;48.780;9.146;2023-08-24T04:07:47;20.50;99.90
7512;DHT22;9999;48.780;9.146;2023-08-24T04:10:14;20.50;99.90
7512;DHT22;9999;48.780;9.146;2023-08-24T04:12:41;20.40;99.90
7512;DHT22;9999;48.780;9.146;2023-08-24T04:15:09;20.40;99.90
7512;DHT22;9999;48.780;9.146;2023-08-24T04:17:36;20.40;99.90
7512;DHT22;9999;48.780;9.146;2023-08-24T04:20:05;20.40;99.90
7512;DHT22;9999;48.780;9.146;2023-08-24T04:22:33;20.40;99.90
7512;DHT22;9999;48.780;9.146;2023-08-24T04:25:00;20.40;99.90
7512;DHT22;9999;48.780;9.146;2023-08-24T04:27:26;20.40;99.90
7512;DHT22;9999;48.780;9.146;2023-08-24T04:29:53;20.40;99.90
7512;DHT22;9999;48.780;9.146;2023-08-24T04:32:21;20.50;99.90
7512;DHT22;9999;48.780;9.146;2023-08-24T04:34:48;20.50;99.90
7512;DHT22;9999;48.780;9.146;2023-08-24T04:37:16;20.50;99.90
7512;DHT22;9999;48.780;9.146;2023-08-24T04:39:43;20.50;99.90
7512;DHT22;9999;48.780;9.146;2023-08-24T04:42:10;20.60;99.90
7512;DHT22;9999;48.780;9.146;2023-08-24T04:44:37;20.50;99.90
7512;DHT22;9999;48.780;9.146;2023-08-24T04:47:04;20.50;99.90
7512;DHT22;9999;48.780;9.146;2023-08-24T04:49:31;20.50;99.90
7512;DHT22;9999;48.780;9.146;2023-08-24T04:51:58;20.50;99.90
7512;DHT22;9999;48.780;9.146;2023-08-24T04:54:26;20.40;99.90
7512;DHT22;9999;48.780;9.146;2023-08-24T04:56:52;20.30;99.90
7512;DHT22;9999;48.780;9.146;2023-08-24T04:59:19;20.30;99.90
7512;DHT22;9999;48.780;9.146;2023-08-24T05:01:46;20.30;99.90
7512;DHT22;9999;48.780;9.146;2023-08-24T05:04:13;20.30;99.90
7512;DHT22;9999;48.780;9.146;2023-08-24T05:06:39;20.30;99.90
7512;DHT22;9999;48.780;9.146;2023-08-24T05:09:06;20.20;99.90
7512;DHT22;9999;48.780;9.146;2023-08-24T05:11:35;20.30;99.90
7512;DHT22;9999;48.780;9.146;2023-08-24T05:14:02;20.30;99.90
7512;DHT22;9999;48.780;9.146;2023-08-24T05:16:29;20.30;99.90
7512;DHT22;9999;48.780;9.146;2023-08-24T05:18:55;20.40;99.90
7512;DHT22;9999;48.780;9.146;2023-08-24T05:21:22;20.40;99.90
7512;DHT22;9999;48.780;9.146;2023-08-24T05:23:49;20.40;99.90
7512;DHT22;9999;48.780;9.146;2023-08-24T05:26:16;20.40;99.90
7512;DHT22;9999;48.780;9.146;2023-08-24T05:28:49;20.50;99.90
7512;DHT22;9999;48.780;9.146;2023-08-24T05:31:16;20.50;99.90
7512;DHT22;9999;48.780;9.146;2023-08-24T05:33:42;20.40;99.90
7512;DHT22;9999;48.780;9.146;2023-08-24T05:36:10;20.40;99.90
7512;DHT22;9999;48.780;9.146;2023-08-24T05:38:38;20.50;99.90
7512;DHT22;9999;48.780;9.146;2023-08-24T05:41:10;20.60;99.90
7512;DHT22;9999;48.780;9.146;2023-08-24T05:43:37;20.60;99.90
7512;DHT22;9999;48.780;9.146;2023-08-24T05:46:05;20.50;99.90
7512;DHT22;9999;48.780;9.146;2023-08-24T05:48:31;20.60;99.90
7512;DHT22;9999;48.780;9.146;2023-08-24T05:50:58;20.60;99.90
7512;DHT22;9999;48.780;9.146;2023-08-24T05:53:25;20.70;99.90
7512;DHT22;9999;48.780;9.146;2023-08-24T05:55:52;20.70;99.90
7512;DHT22;9999;48.780;9.146;2023-08-24T05:58:23;20.80;99.90
7512;DHT22;9999;48.780;9.146;2023-08-24T06:00:56;20.80;99.90
7512;DHT22;9999;48.780;9.146;2023-08-24T06:03:24;20.80;99.90
7512;DHT22;9999;48.780;9.146;2023-08-24T06:05:51;20.80;99.90
7512;DHT22;9999;48.780;9.146;2023-08-24T06:08:18;20.80;99.90
7512;DHT22;9999;48.780;9.146;2023-08-24T06:10:44;20.80;99.90
7512;DHT22;9999;48.780;9.146;2023-08-24T06:13:11;20.90;99.90
7512;DHT22;9999;48.780;9.146;2023-08-24T06:15:38;21.00;99.90
7512;DHT22;9999;48.780;9.146;2023-08-24T06:18:05;21.10;99.90
7512;DHT22;9999;48.780;9.146;2023-08-24T06:20:33;21.20;99.90
7512;DHT22;9999;48.780;9.146;2023-08-24T06:23:00;21.10;99.90
7512;DHT22;9999;48.780;9.146;2023-08-24T06:25:27;21.10;99.90
7512;DHT22;9999;48.780;9.146;2023-08-24T06:27:54;21.20;99.90
7512;DHT22;9999;48.780;9.146;2023-08-24T06:30:21;21.20;99.90
7512;DHT22;9999;48.780;9.146;2023-08-24T06:32:48;21.40;99.90
7512;DHT22;9999;48.780;9.146;2023-08-24T06:35:15;21.40;99.90
7512;DHT22;9999;48.780;9.146;2023-08-24T06:37:43;21.40;99.90
7512;DHT22;9999;48.780;9.146;2023-08-24T06:40:11;21.40;99.90
7512;DHT22;9999;48.780;9.146;2023-08-24T06:42:38;21.40;99.90
7512;DHT22;9999;48.780;9.146;2023-08-24T06:45:06;21.40;99.90
7512;DHT22;9999;48.780;9.146;2023-08-24T06:47:35;21.50;99.90
7512;DHT22;9999;48.780;9.146;2023-08-24T06:50:02;21.60;99.90
7512;DHT22;9999;48.780;9.146;2023-08-24T06:52:29;21.70;99.90
7512;DHT22;9999;48.780;9.146;2023-08-24T06:54:57;21.70;99.90
7512;DHT22;9999;48.780;9.146;2023-08-24T06:57:24;21.70;99.90
7512;DHT22;9999;48.780;9.146;2023-08-24T06:59:51;21.70;99.90
7512;DHT22;9999;48.780;9.146;2023-08-24T07:02:18;21.60;99.90
7512;DHT22;9999;48.780;9.146;2023-08-24T07:04:44;21.60;99.90
7512;DHT22;9999;48.780;9.146;2023-08-24T07:07:11;21.60;99.90
7512;DHT22;9999;48.780;9.146;2023-08-24T07:09:38;21.70;99.90
7512;DHT22;9999;48.780;9.146;2023-08-24T07:12:07;21.70;99.90
7512;DHT22;9999;48.780;9.146;2023-08-24T07:14:35;21.70;99.90
7512;DHT22;9999;48.780;9.146;2023-08-24T07:17:02;21.70;99.90
7512;DHT22;9999;48.780;9.146;2023-08-24T07:19:29;22.00;99.90
7512;DHT22;9999;48.780;9.146;2023-08-24T07:21:56;22.10;99.90
7512;DHT22;9999;48.780;9.146;2023-08-24T07:24:23;22.20;99.90
7512;DHT22;9999;48.780;9.146;2023-08-24T07:26:51;22.20;99.90
7512;DHT22;9999;48.780;9.146;2023-08-24T07:29:20;22.20;99.90
7512;DHT22;9999;48.780;9.146;2023-08-24T07:31:47;22.60;99.90
7512;DHT22;9999;48.780;9.146;2023-08-24T07:34:14;22.80;99.90
7512;DHT22;9999;48.780;9.146;2023-08-24T07:36:41;22.90;99.90
7512;DHT22;9999;48.780;9.146;2023-08-24T07:39:10;22.90;99.90
7512;DHT22;9999;48.780;9.146;2023-08-24T07:41:37;23.00;99.90
7512;DHT22;9999;48.780;9.146;2023-08-24T07:44:04;23.10;99.90
7512;DHT22;9999;48.780;9.146;2023-08-24T07:46:32;23.50;99.90
7512;DHT22;9999;48.780;9.146;2023-08-24T07:49:02;23.80;99.90
7512;DHT22;9999;48.780;9.146;2023-08-24T07:51:28;24.10;99.90
7512;DHT22;9999;48.780;9.146;2023-08-24T07:53:55;24.20;99.90
7512;DHT22;9999;48.780;9.146;2023-08-24T07:56:22;24.60;99.90
7512;DHT22;9999;48.780;9.146;2023-08-24T07:58:49;24.90;99.90
7512;DHT22;9999;48.780;9.146;2023-08-24T08:01:16;25.30;99.90
7512;DHT22;9999;48.780;9.146;2023-08-24T08:03:44;25.50;99.90
7512;DHT22;9999;48.780;9.146;2023-08-24T08:06:11;25.70;99.90
7512;DHT22;9999;48.780;9.146;2023-08-24T08:08:39;25.60;99.90
7512;DHT22;9999;48.780;9.146;2023-08-24T08:11:06;25.70;99.90
7512;DHT22;9999;48.780;9.146;2023-08-24T08:13:32;26.00;99.90
7512;DHT22;9999;48.780;9.146;2023-08-24T08:16:03;26.00;99.90
7512;DHT22;9999;48.780;9.146;2023-08-24T08:18:31;25.80;99.90
7512;DHT22;9999;48.780;9.146;2023-08-24T08:20:59;25.90;99.90
7512;DHT22;9999;48.780;9.146;2023-08-24T08:23:27;26.10;99.90
7512;DHT22;9999;48.780;9.146;2023-08-24T08:25:54;26.30;99.90
7512;DHT22;9999;48.780;9.146;2023-08-24T08:28:20;26.40;99.90
7512;DHT22;9999;48.780;9.146;2023-08-24T08:30:48;26.50;99.90
7512;DHT22;9999;48.780;9.146;2023-08-24T08:33:15;26.70;99.90
7512;DHT22;9999;48.780;9.146;2023-08-24T08:35:42;26.50;99.90
7512;DHT22;9999;48.780;9.146;2023-08-24T08:38:11;26.40;99.90
7512;DHT22;9999;48.780;9.146;2023-08-24T08:40:37;26.40;99.90
7512;DHT22;9999;48.780;9.146;2023-08-24T08:43:06;26.40;99.90
7512;DHT22;9999;48.780;9.146;2023-08-24T08:45:33;26.50;99.90
7512;DHT22;9999;48.780;9.146;2023-08-24T08:48:01;26.50;99.90
7512;DHT22;9999;48.780;9.146;2023-08-24T08:50:30;26.50;99.90
7512;DHT22;9999;48.780;9.146;2023-08-24T08:52:58;26.50;99.90
7512;DHT22;9999;48.780;9.146;2023-08-24T08:55:28;26.40;99.90
7512;DHT22;9999;48.780;9.146;2023-08-24T08:57:57;26.40;99.90
7512;DHT22;9999;48.780;9.146;2023-08-24T09:00:24;26.30;99.90
7512;DHT22;9999;48.780;9.146;2023-08-24T09:02:53;26.40;99.90
7512;DHT22;9999;48.780;9.146;2023-08-24T09:05:20;26.60;99.90
7512;DHT22;9999;48.780;9.146;2023-08-24T09:07:49;26.50;99.90
7512;DHT22;9999;48.780;9.146;2023-08-24T09:10:16;26.70;99.90
7512;DHT22;9999;48.780;9.146;2023-08-24T09:12:44;26.80;99.90
7512;DHT22;9999;48.780;9.146;2023-08-24T09:15:11;26.90;99.90
7512;DHT22;9999;48.780;9.146;2023-08-24T09:17:43;26.90;99.90
7512;DHT22;9999;48.780;9.146;2023-08-24T09:20:10;27.00;99.90
7512;DHT22;9999;48.780;9.146;2023-08-24T09:22:37;27.00;99.90
7512;DHT22;9999;48.780;9.146;2023-08-24T09:25:09;27.20;99.90
7512;DHT22;9999;48.780;9.146;2023-08-24T09:27:35;27.10;99.90
7512;DHT22;9999;48.780;9.146;2023-08-24T09:30:05;27.10;99.90
7512;DHT22;9999;48.780;9.146;2023-08-24T09:32:32;27.30;99.90
7512;DHT22;9999;48.780;9.146;2023-08-24T09:35:02;27.50;99.90
7512;DHT22;9999;48.780;9.146;2023-08-24T09:37:32;27.70;99.90
7512;DHT22;9999;48.780;9.146;2023-08-24T09:40:03;27.80;99.90
7512;DHT22;9999;48.780;9.146;2023-08-24T09:42:37;27.80;99.90
7512;DHT22;9999;48.780;9.146;2023-08-24T09:45:08;27.80;99.90
7512;DHT22;9999;48.780;9.146;2023-08-24T09:47:37;27.80;99.90
7512;DHT22;9999;48.780;9.146;2023-08-24T09:50:05;27.90;99.90
7512;DHT22;9999;48.780;9.146;2023-08-24T09:52:33;28.10;99.90
7512;DHT22;9999;48.780;9.146;2023-08-24T09:55:03;28.20;99.90
7512;DHT22;9999;48.780;9.146;2023-08-24T09:57:33;28.20;99.90
7512;DHT22;9999;48.780;9.146;2023-08-24T10:00:03;28.20;99.90
7512;DHT22;9999;48.780;9.146;2023-08-24T10:02:38;28.20;99.90
7512;DHT22;9999;48.780;9.146;2023-08-24T10:05:08;28.20;99.90
7512;DHT22;9999;48.780;9.146;2023-08-24T10:07:37;28.20;99.90
7512;DHT22;9999;48.780;9.146;2023-08-24T10:10:07;28.40;99.90
7512;DHT22;9999;48.780;9.146;2023-08-24T10:12:41;28.60;99.90
7512;DHT22;9999;48.780;9.146;2023-08-24T10:15:08;28.80;99.90
7512;DHT22;9999;48.780;9.146;2023-08-24T10:17:39;29.10;99.90
7512;DHT22;9999;48.780;9.146;2023-08-24T10:20:07;29.00;99.90
7512;DHT22;9999;48.780;9.146;2023-08-24T10:22:36;29.20;99.90
7512;DHT22;9999;48.780;9.146;2023-08-24T10:25:07;29.30;99.90
7512;DHT22;9999;48.780;9.146;2023-08-24T10:27:34;29.40;99.90
7512;DHT22;9999;48.780;9.146;2023-08-24T10:30:01;29.50;99.90
7512;DHT22;9999;48.780;9.146;2023-08-24T10:32:28;29.60;99.90
7512;DHT22;9999;48.780;9.146;2023-08-24T10:34:57;29.50;99.90
7512;DHT22;9999;48.780;9.146;2023-08-24T10:37:26;29.80;99.90
7512;DHT22;9999;48.780;9.146;2023-08-24T10:39:53;29.90;99.90
7512;DHT22;9999;48.780;9.146;2023-08-24T10:42:19;30.00;99.90
7512;DHT22;9999;48.780;9.146;2023-08-24T10:44:48;30.20;99.90
7512;DHT22;9999;48.780;9.146;2023-08-24T10:47:19;30.20;99.90
7512;DHT22;9999;48.780;9.146;2023-08-24T10:49:59;30.40;99.90
7512;DHT22;9999;48.780;9.146;2023-08-24T10:52:31;30.60;99.90
7512;DHT22;9999;48.780;9.146;2023-08-24T10:55:00;30.80;99.90
7512;DHT22;9999;48.780;9.146;2023-08-24T10:57:35;31.00;99.90
7512;DHT22;9999;48.780;9.146;2023-08-24T11:00:07;30.90;99.90
7512;DHT22;9999;48.780;9.146;2023-08-24T11:02:42;30.80;99.90
7512;DHT22;9999;48.780;9.146;2023-08-24T11:05:18;31.20;99.90
7512;DHT22;9999;48.780;9.146;2023-08-24T11:07:50;31.30;99.90
7512;DHT22;9999;48.780;9.146;2023-08-24T11:10:18;31.30;99.40
7512;DHT22;9999;48.780;9.146;2023-08-24T11:13:15;31.40;99.90
7512;DHT22;9999;48.780;9.146;2023-08-24T11:15:43;31.50;99.90
7512;DHT22;9999;48.780;9.146;2023-08-24T11:18:21;31.80;99.90
7512;DHT22;9999;48.780;9.146;2023-08-24T11:20:51;31.80;99.90
7512;DHT22;9999;48.780;9.146;2023-08-24T11:23:19;32.10;99.90
7512;DHT22;9999;48.780;9.146;2023-08-24T11:25:47;32.10;99.90
7512;DHT22;9999;48.780;9.146;2023-08-24T11:28:19;32.10;99.90
7512;DHT22;9999;48.780;9.146;2023-08-24T11:30:46;32.20;99.90
7512;DHT22;9999;48.780;9.146;2023-08-24T11:33:14;32.30;98.10
7512;DHT22;9999;48.780;9.146;2023-08-24T11:35:42;32.30;98.40
7512;DHT22;9999;48.780;9.146;2023-08-24T11:38:11;32.40;99.30
7512;DHT22;9999;48.780;9.146;2023-08-24T11:40:38;32.50;98.80
7512;DHT22;9999;48.780;9.146;2023-08-24T11:43:05;32.50;99.00
7512;DHT22;9999;48.780;9.146;2023-08-24T11:45:33;32.70;97.90
7512;DHT22;9999;48.780;9.146;2023-08-24T11:48:00;32.60;97.90
7512;DHT22;9999;48.780;9.146;2023-08-24T11:50:28;32.50;97.80
7512;DHT22;9999;48.780;9.146;2023-08-24T11:52:55;32.80;97.50
7512;DHT22;9999;48.780;9.146;2023-08-24T11:55:23;32.80;95.80
7512;DHT22;9999;48.780;9.146;2023-08-24T11:57:50;32.70;97.20
7512;DHT22;9999;48.780;9.146;2023-08-24T12:00:20;32.90;97.10
7512;DHT22;9999;48.780;9.146;2023-08-24T12:02:48;32.80;95.90
7512;DHT22;9999;48.780;9.146;2023-08-24T12:05:22;32.40;95.90
7512;DHT22;9999;48.780;9.146;2023-08-24T12:07:50;32.50;96.80
7512;DHT22;9999;48.780;9.146;2023-08-24T12:10:17;32.70;95.80
7512;DHT22;9999;48.780;9.146;2023-08-24T12:12:46;32.90;96.60
7512;DHT22;9999;48.780;9.146;2023-08-24T12:15:15;32.90;95.40
7512;DHT22;9999;48.780;9.146;2023-08-24T12:17:44;33.00;95.50
7512;DHT22;9999;48.780;9.146;2023-08-24T12:20:18;33.30;95.20
7512;DHT22;9999;48.780;9.146;2023-08-24T12:22:50;33.20;94.50
7512;DHT22;9999;48.780;9.146;2023-08-24T12:25:17;33.10;94.80
7512;DHT22;9999;48.780;9.146;2023-08-24T12:27:46;33.00;94.50
7512;DHT22;9999;48.780;9.146;2023-08-24T12:30:12;33.10;95.50
7512;DHT22;9999;48.780;9.146;2023-08-24T12:32:43;33.10;94.00
7512;DHT22;9999;48.780;9.146;2023-08-24T12:35:11;33.30;94.70
7512;DHT22;9999;48.780;9.146;2023-08-24T12:37:38;33.30;94.00
7512;DHT22;9999;48.780;9.146;2023-08-24T12:40:06;32.90;94.10
7512;DHT22;9999;48.780;9.146;2023-08-24T12:42:33;32.90;94.20
7512;DHT22;9999;48.780;9.146;2023-08-24T12:45:01;32.80;93.00
7512;DHT22;9999;48.780;9.146;2023-08-24T12:47:30;33.10;94.80
7512;DHT22;9999;48.780;9.146;2023-08-24T12:49:57;33.20;94.00
7512;DHT22;9999;48.780;9.146;2023-08-24T12:52:23;33.20;93.00
7512;DHT22;9999;48.780;9.146;2023-08-24T12:54:51;33.30;93.30
7512;DHT22;9999;48.780;9.146;2023-08-24T12:57:17;33.70;93.10
7512;DHT22;9999;48.780;9.146;2023-08-24T12:59:44;33.80;92.10
7512;DHT22;9999;48.780;9.146;2023-08-24T13:02:13;33.50;91.60
7512;DHT22;9999;48.780;9.146;2023-08-24T13:04:40;33.60;91.90
7512;DHT22;9999;48.780;9.146;2023-08-24T13:07:07;33.80;91.50
7512;DHT22;9999;48.780;9.146;2023-08-24T13:09:34;33.90;92.00
7512;DHT22;9999;48.780;9.146;2023-08-24T13:12:01;34.00;92.00
7512;DHT22;9999;48.780;9.146;2023-08-24T13:14:28;34.10;91.80
7512;DHT22;9999;48.780;9.146;2023-08-24T13:16:55;34.00;91.50
7512;DHT22;9999;48.780;9.146;2023-08-24T13:19:23;33.70;92.10
7512;DHT22;9999;48.780;9.146;2023-08-24T13:21:50;33.70;92.00
7512;DHT22;9999;48.780;9.146;2023-08-24T13:24:17;33.70;90.60
7512;DHT22;9999;48.780;9.146;2023-08-24T13:26:47;33.70;91.00
7512;DHT22;9999;48.780;9.146;2023-08-24T13:29:14;33.70;91.80
7512;DHT22;9999;48.780;9.146;2023-08-24T13:31:40;33.90;92.20
7512;DHT22;9999;48.780;9.146;2023-08-24T13:34:07;34.10;91.00
7512;DHT22;9999;48.780;9.146;2023-08-24T13:36:35;34.10;90.80
7512;DHT22;9999;48.780;9.146;2023-08-24T13:39:02;34.00;90.00
7512;DHT22;9999;48.780;9.146;2023-08-24T13:41:30;34.10;91.10
7512;DHT22;9999;48.780;9.146;2023-08-24T13:43:56;33.90;90.20
7512;DHT22;9999;48.780;9.146;2023-08-24T13:46:23;34.00;88.80
7512;DHT22;9999;48.780;9.146;2023-08-24T13:48:50;34.10;89.00
7512;DHT22;9999;48.780;9.146;2023-08-24T13:51:17;34.20;87.60
7512;DHT22;9999;48.780;9.146;2023-08-24T13:53:45;34.30;86.40
7512;DHT22;9999;48.780;9.146;2023-08-24T13:56:11;34.40;84.90
7512;DHT22;9999;48.780;9.146;2023-08-24T13:58:38;34.20;81.60
7512;DHT22;9999;48.780;9.146;2023-08-24T14:01:05;34.20;82.00
7512;DHT22;9999;48.780;9.146;2023-08-24T14:03:32;34.40;85.00
7512;DHT22;9999;48.780;9.146;2023-08-24T14:06:00;34.60;83.10
7512;DHT22;9999;48.780;9.146;2023-08-24T14:08:27;34.60;82.40
7512;DHT22;9999;48.780;9.146;2023-08-24T14:10:55;34.60;81.10
7512;DHT22;9999;48.780;9.146;2023-08-24T14:13:22;34.50;79.30
7512;DHT22;9999;48.780;9.146;2023-08-24T14:15:50;34.40;79.50
7512;DHT22;9999;48.780;9.146;2023-08-24T14:18:18;34.30;80.00
7512;DHT22;9999;48.780;9.146;2023-08-24T14:20:45;34.20;77.10
7512;DHT22;9999;48.780;9.146;2023-08-24T14:23:12;34.20;81.20
7512;DHT22;9999;48.780;9.146;2023-08-24T14:25:38;33.70;79.40
7512;DHT22;9999;48.780;9.146;2023-08-24T14:28:06;33.60;77.40
7512;DHT22;9999;48.780;9.146;2023-08-24T14:30:33;33.50;78.40
7512;DHT22;9999;48.780;9.146;2023-08-24T14:33:00;33.40;80.40
7512;DHT22;9999;48.780;9.146;2023-08-24T14:35:27;33.40;80.30
7512;DHT22;9999;48.780;9.146;2023-08-24T14:37:54;33.20;81.20
7512;DHT22;9999;48.780;9.146;2023-08-24T14:40:20;33.20;80.20
7512;DHT22;9999;48.780;9.146;2023-08-24T14:42:47;33.10;81.90
7512;DHT22;9999;48.780;9.146;2023-08-24T14:45:16;33.00;81.70
7512;DHT22;9999;48.780;9.146;2023-08-24T14:47:44;32.80;83.60
7512;DHT22;9999;48.780;9.146;2023-08-24T14:50:12;32.50;83.00
7512;DHT22;9999;48.780;9.146;2023-08-24T14:52:39;32.30;82.70
7512;DHT22;9999;48.780;9.146;2023-08-24T14:55:07;32.20;82.20
7512;DHT22;9999;48.780;9.146;2023-08-24T14:57:35;32.20;82.90
7512;DHT22;9999;48.780;9.146;2023-08-24T15:02:32;31.00;93.80
7512;DHT22;9999;48.780;9.146;2023-08-24T15:04:59;30.30;98.30
7512;DHT22;9999;48.780;9.146;2023-08-24T15:07:25;29.70;99.90
7512;DHT22;9999;48.780;9.146;2023-08-24T15:09:52;29.10;99.90
7512;DHT22;9999;48.780;9.146;2023-08-24T15:12:20;28.50;99.90
7512;DHT22;9999;48.780;9.146;2023-08-24T15:14:57;28.00;99.90
7512;DHT22;9999;48.780;9.146;2023-08-24T15:17:24;27.50;99.90
7512;DHT22;9999;48.780;9.146;2023-08-24T15:19:52;27.20;99.90
7512;DHT22;9999;48.780;9.146;2023-08-24T15:22:18;26.90;99.90
7512;DHT22;9999;48.780;9.146;2023-08-24T15:24:45;26.70;99.90
7512;DHT22;9999;48.780;9.146;2023-08-24T15:27:12;26.70;99.90
7512;DHT22;9999;48.780;9.146;2023-08-24T15:29:39;26.60;99.90
7512;DHT22;9999;48.780;9.146;2023-08-24T15:32:05;26.50;99.90
7512;DHT22;9999;48.780;9.146;2023-08-24T15:34:32;26.40;99.90
7512;DHT22;9999;48.780;9.146;2023-08-24T15:37:00;26.40;99.90
7512;DHT22;9999;48.780;9.146;2023-08-24T15:39:27;26.30;99.90
7512;DHT22;9999;48.780;9.146;2023-08-24T15:41:54;26.10;99.90
7512;DHT22;9999;48.780;9.146;2023-08-24T15:44:21;26.10;99.90
7512;DHT22;9999;48.780;9.146;2023-08-24T15:46:48;26.00;99.90
7512;DHT22;9999;48.780;9.146;2023-08-24T15:49:14;26.10;99.90
7512;DHT22;9999;48.780;9.146;2023-08-24T15:51:41;26.20;99.90
7512;DHT22;9999;48.780;9.146;2023-08-24T15:54:09;26.20;99.90
7512;DHT22;9999;48.780;9.146;2023-08-24T15:56:36;26.30;99.90
7512;DHT22;9999;48.780;9.146;2023-08-24T15:59:03;26.10;99.90
7512;DHT22;9999;48.780;9.146;2023-08-24T16:01:30;26.00;99.90
7512;DHT22;9999;48.780;9.146;2023-08-24T16:03:57;25.80;99.90
7512;DHT22;9999;48.780;9.146;2023-08-24T16:06:24;25.90;99.90
7512;DHT22;9999;48.780;9.146;2023-08-24T16:08:50;25.80;99.90